createdAt,value
2018-06-25T00:00:40.035Z,100.00
2018-06-25T00:03:10.029Z,100.00
2018-06-25T00:05:39.951Z,100.00
2018-06-25T00:08:09.829Z,100.00
2018-06-25T00:10:40.047Z,100.00
2018-06-25T00:13:10.027Z,100.00
2018-06-25T00:15:39.969Z,100.00
2018-06-25T00:18:10.424Z,100.00
2018-06-25T00:20:40.301Z,100.00
2018-06-25T00:23:10.333Z,100.00
2018-06-25T00:25:40.292Z,100.00
2018-06-25T00:28:11.448Z,100.00
2018-06-25T00:30:41.453Z,100.00
2018-06-25T00:33:11.932Z,100.00
2018-06-25T00:35:41.997Z,100.00
2018-06-25T00:38:12.517Z,100.00
2018-06-25T00:40:42.816Z,100.00
2018-06-25T00:43:12.921Z,100.00
2018-06-25T00:45:42.819Z,100.00
2018-06-25T00:48:12.829Z,100.00
2018-06-25T00:50:42.986Z,100.00
2018-06-25T00:53:13.004Z,100.00
2018-06-25T00:55:42.976Z,100.00
2018-06-25T00:58:12.927Z,100.00
2018-06-25T01:00:43.157Z,100.00
2018-06-25T01:03:13.205Z,100.00
2018-06-25T01:05:43.381Z,100.00
2018-06-25T01:08:13.348Z,100.00
2018-06-25T01:10:43.269Z,100.00
2018-06-25T01:13:13.283Z,100.00
2018-06-25T01:15:43.324Z,100.00
2018-06-25T01:18:13.317Z,100.00
2018-06-25T01:20:43.375Z,100.00
2018-06-25T01:23:13.384Z,100.00
2018-06-25T01:25:43.544Z,100.00
2018-06-25T01:28:13.700Z,100.00
2018-06-25T01:30:43.665Z,100.00
2018-06-25T01:33:14.009Z,100.00
2018-06-25T01:35:44.066Z,100.00
2018-06-25T01:38:13.965Z,100.00
2018-06-25T01:40:44.046Z,100.00
2018-06-25T01:43:13.977Z,100.00
2018-06-25T01:45:44.589Z,100.00
2018-06-25T01:48:14.513Z,100.00
2018-06-25T01:50:44.951Z,100.00
2018-06-25T01:53:14.787Z,100.00
2018-06-25T01:55:44.854Z,100.00
2018-06-25T01:58:14.721Z,100.00
2018-06-25T02:00:44.753Z,100.00
2018-06-25T02:03:14.687Z,100.00
2018-06-25T02:05:44.768Z,100.00
2018-06-25T02:08:15.868Z,100.00
2018-06-25T02:10:45.842Z,100.00
2018-06-25T02:13:16.145Z,100.00
2018-06-25T02:15:46.357Z,100.00
2018-06-25T02:18:16.339Z,100.00
2018-06-25T02:20:46.350Z,100.00
2018-06-25T02:23:16.682Z,100.00
2018-06-25T02:25:46.663Z,100.00
2018-06-25T02:28:16.655Z,100.00
2018-06-25T02:30:47.000Z,100.00
2018-06-25T02:33:17.102Z,100.00
2018-06-25T02:35:47.510Z,100.00
2018-06-25T02:38:17.369Z,100.00
2018-06-25T02:40:47.469Z,100.00
2018-06-25T02:43:17.343Z,100.00
2018-06-25T02:45:47.864Z,100.00
2018-06-25T02:48:18.083Z,100.00
2018-06-25T02:50:48.589Z,100.00
2018-06-25T02:53:18.694Z,100.00
2018-06-25T02:55:48.788Z,100.00
2018-06-25T02:58:18.836Z,100.00
2018-06-25T03:00:48.768Z,100.00
2018-06-25T03:03:18.732Z,100.00
2018-06-25T03:05:48.967Z,100.00
2018-06-25T03:08:18.840Z,100.00
2018-06-25T03:10:49.250Z,100.00
2018-06-25T03:13:19.851Z,100.00
2018-06-25T03:15:50.229Z,100.00
2018-06-25T03:18:20.259Z,100.00
2018-06-25T03:20:57.060Z,100.00
2018-06-25T03:23:28.099Z,100.00
2018-06-25T03:25:58.488Z,100.00
2018-06-25T03:28:28.807Z,100.00
2018-06-25T03:30:58.762Z,100.00
2018-06-25T03:33:28.753Z,98.87
2018-06-25T03:35:59.057Z,99.13
2018-06-25T03:38:29.145Z,98.80
2018-06-25T03:40:59.044Z,94.19
2018-06-25T03:43:29.423Z,91.37
2018-06-25T03:45:59.412Z,93.74
2018-06-25T03:48:29.964Z,90.72
2018-06-25T03:51:00.344Z,93.05
2018-06-25T03:53:30.690Z,93.91
2018-06-25T03:56:00.992Z,94.85
2018-06-25T03:58:30.911Z,94.99
2018-06-25T04:01:00.951Z,94.08
2018-06-25T04:03:30.898Z,95.08
2018-06-25T04:06:01.197Z,95.14
2018-06-25T04:08:31.160Z,91.29
2018-06-25T04:11:00.979Z,93.41
2018-06-25T04:13:30.959Z,93.55
2018-06-25T04:16:00.785Z,93.63
2018-06-25T04:18:30.955Z,93.98
2018-06-25T04:21:00.725Z,94.99
2018-06-25T04:23:31.179Z,94.58
2018-06-25T04:26:01.591Z,93.73
2018-06-25T04:28:31.836Z,95.19
2018-06-25T04:31:01.741Z,95.00
2018-06-25T04:33:31.720Z,94.99
2018-06-25T04:36:01.682Z,96.44
2018-06-25T04:38:31.645Z,95.03
2018-06-25T04:41:01.750Z,95.13
2018-06-25T04:43:31.700Z,95.26
2018-06-25T04:46:01.692Z,95.05
2018-06-25T04:48:31.710Z,94.98
2018-06-25T04:51:02.096Z,94.25
2018-06-25T04:53:32.408Z,93.91
2018-06-25T04:56:02.645Z,94.44
2018-06-25T04:58:32.873Z,93.59
2018-06-25T05:01:03.534Z,94.26
2018-06-25T05:03:33.487Z,93.85
2018-06-25T05:06:03.451Z,93.29
2018-06-25T05:08:33.480Z,91.80
2018-06-25T05:11:03.512Z,92.89
2018-06-25T05:13:34.968Z,92.32
2018-06-25T05:16:05.441Z,92.69
2018-06-25T05:18:35.888Z,91.47
2018-06-25T05:21:05.909Z,91.57
2018-06-25T05:23:36.240Z,91.67
2018-06-25T05:26:06.773Z,90.34
2018-06-25T05:28:37.229Z,89.58
2018-06-25T05:31:07.157Z,88.00
2018-06-25T05:33:37.157Z,87.54
2018-06-25T05:36:07.371Z,85.30
2018-06-25T05:38:37.722Z,85.46
2018-06-25T05:41:07.768Z,83.79
2018-06-25T05:43:38.016Z,82.52
2018-06-25T05:46:08.688Z,83.73
2018-06-25T05:48:39.233Z,83.86
2018-06-25T05:51:09.450Z,84.60
2018-06-25T05:53:40.104Z,84.05
2018-06-25T05:56:10.183Z,84.80
2018-06-25T05:58:40.266Z,82.94
2018-06-25T06:18:39.759Z,74.59
2018-06-25T06:21:09.581Z,69.96
2018-06-25T06:23:39.796Z,71.40
2018-06-25T06:26:10.296Z,69.07
2018-06-25T06:28:40.407Z,67.87
2018-06-25T06:31:10.592Z,70.48
2018-06-25T06:33:40.691Z,68.99
2018-06-25T06:36:10.594Z,70.47
2018-06-25T06:38:40.641Z,68.14
2018-06-25T06:41:11.031Z,66.96
2018-06-25T06:43:41.192Z,69.20
2018-06-25T06:46:11.457Z,70.25
2018-06-25T06:48:41.912Z,67.13
2018-06-25T06:51:12.192Z,70.96
2018-06-25T06:53:42.171Z,67.21
2018-06-25T06:56:12.595Z,66.88
2018-06-25T06:58:43.007Z,67.85
2018-06-25T07:01:13.062Z,68.50
2018-06-25T07:03:42.956Z,68.44
2018-06-25T07:06:12.972Z,70.00
2018-06-25T07:08:43.233Z,69.44
2018-06-25T07:11:14.542Z,67.08
2018-06-25T07:13:45.160Z,68.41
2018-06-25T07:16:15.161Z,67.33
2018-06-25T07:18:45.697Z,64.30
2018-06-25T07:21:16.608Z,67.26
2018-06-25T07:23:46.940Z,68.44
2018-06-25T07:26:22.003Z,67.75
2018-06-25T07:28:52.342Z,65.71
2018-06-25T07:31:22.372Z,63.41
2018-06-25T07:33:52.464Z,64.52
2018-06-25T07:36:22.770Z,64.14
2018-06-25T07:38:52.674Z,62.00
2018-06-25T07:41:22.770Z,62.76
2018-06-25T07:43:52.865Z,60.73
2018-06-25T07:46:23.108Z,63.25
2018-06-25T07:48:53.136Z,60.79
2018-06-25T07:51:23.096Z,61.31
2018-06-25T07:53:53.221Z,60.97
2018-06-25T07:56:23.375Z,58.56
2018-06-25T07:58:53.651Z,58.03
2018-06-25T08:01:23.877Z,58.16
2018-06-25T08:03:53.954Z,58.21
2018-06-25T08:06:24.136Z,57.96
2018-06-25T08:08:54.194Z,58.12
2018-06-25T08:11:24.205Z,57.71
2018-06-25T08:13:54.130Z,55.82
2018-06-25T08:16:24.328Z,57.86
2018-06-25T08:18:54.567Z,55.75
2018-06-25T08:21:24.770Z,57.90
2018-06-25T08:23:54.656Z,54.57
2018-06-25T08:26:24.771Z,56.75
2018-06-25T08:28:55.263Z,57.45
2018-06-25T08:31:25.320Z,55.31
2018-06-25T08:33:55.701Z,54.34
2018-06-25T08:36:26.147Z,55.33
2018-06-25T08:38:56.209Z,56.61
2018-06-25T08:41:26.244Z,58.38
2018-06-25T08:43:56.644Z,58.56
2018-06-25T08:46:27.060Z,58.01
2018-06-25T08:48:57.747Z,57.71
2018-06-25T08:51:28.006Z,55.68
2018-06-25T08:53:58.202Z,56.40
2018-06-25T08:56:28.097Z,54.74
2018-06-25T08:58:58.468Z,57.56
2018-06-25T09:01:28.921Z,58.10
2018-06-25T09:03:59.432Z,56.97
2018-06-25T09:06:29.476Z,57.74
2018-06-25T09:09:00.132Z,57.10
2018-06-25T09:11:30.305Z,58.75
2018-06-25T09:14:00.268Z,59.04
2018-06-25T09:16:30.296Z,57.90
2018-06-25T09:19:00.477Z,56.99
2018-06-25T09:21:30.537Z,54.25
2018-06-25T09:24:00.600Z,54.97
2018-06-25T09:26:30.668Z,55.09
2018-06-25T09:29:00.618Z,55.40
2018-06-25T09:31:30.666Z,55.88
2018-06-25T09:34:03.393Z,57.47
2018-06-25T09:36:33.439Z,55.82
2018-06-25T09:39:03.481Z,54.76
2018-06-25T09:41:34.199Z,55.68
2018-06-25T09:44:04.455Z,53.36
2018-06-25T09:46:34.537Z,54.17
2018-06-25T09:49:04.451Z,55.71
2018-06-25T09:51:34.821Z,55.41
2018-06-25T09:54:05.060Z,55.17
2018-06-25T09:56:35.103Z,56.22
2018-06-25T09:59:06.147Z,54.38
2018-06-25T10:01:37.672Z,54.90
2018-06-25T10:04:09.168Z,54.47
2018-06-25T10:06:39.552Z,54.49
2018-06-25T10:09:11.977Z,54.71
2018-06-25T10:11:42.355Z,56.10
2018-06-25T10:14:12.580Z,54.71
2018-06-25T10:16:42.541Z,54.40
2018-06-25T10:19:13.444Z,55.05
2018-06-25T10:21:43.599Z,55.09
2018-06-25T10:24:13.788Z,55.51
2018-06-25T10:26:43.968Z,53.37
2018-06-25T10:29:14.447Z,53.90
2018-06-25T10:31:44.303Z,53.68
2018-06-25T10:34:14.881Z,52.41
2018-06-25T10:36:46.358Z,54.07
2018-06-25T10:39:16.788Z,55.02
2018-06-25T10:41:47.155Z,53.48
2018-06-25T10:44:17.410Z,54.54
2018-06-25T10:46:47.295Z,58.34
2018-06-25T10:49:18.426Z,54.10
2018-06-25T10:51:48.544Z,54.01
2018-06-25T10:54:18.639Z,55.85
2018-06-25T10:56:49.136Z,55.23
2018-06-25T10:59:19.586Z,56.54
2018-06-25T11:01:49.783Z,53.50
2018-06-25T11:04:19.749Z,55.23
2018-06-25T11:06:49.720Z,55.91
2018-06-25T11:09:19.723Z,57.33
2018-06-25T11:11:50.236Z,57.29
2018-06-25T11:14:20.704Z,57.15
2018-06-25T11:16:51.763Z,58.36
2018-06-25T11:19:21.780Z,59.04
2018-06-25T11:21:51.760Z,58.00
2018-06-25T11:24:21.801Z,59.63
2018-06-25T11:26:51.871Z,58.99
2018-06-25T11:29:22.233Z,57.53
2018-06-25T11:31:52.843Z,57.82
2018-06-25T11:34:22.822Z,57.70
2018-06-25T11:36:53.268Z,58.12
2018-06-25T11:39:23.485Z,54.11
2018-06-25T11:41:53.531Z,56.45
2018-06-25T11:44:23.657Z,56.36
2018-06-25T11:46:53.592Z,56.27
2018-06-25T11:49:23.612Z,56.64
2018-06-25T11:51:54.147Z,57.12
2018-06-25T11:54:24.148Z,55.90
2018-06-25T11:56:54.002Z,58.26
2018-06-25T11:59:23.944Z,57.23
2018-06-25T12:01:54.108Z,57.77
2018-06-25T12:04:24.548Z,57.66
2018-06-25T12:06:54.558Z,56.55
2018-06-25T12:09:25.095Z,57.84
2018-06-25T12:11:55.024Z,57.73
2018-06-25T12:14:25.191Z,57.33
2018-06-25T12:16:55.090Z,56.81
2018-06-25T12:19:24.984Z,57.02
2018-06-25T12:21:54.874Z,55.68
2018-06-25T12:24:25.098Z,56.24
2018-06-25T12:26:54.988Z,55.16
2018-06-25T12:29:25.136Z,57.90
2018-06-25T12:31:55.641Z,56.29
2018-06-25T12:34:25.492Z,56.79
2018-06-25T12:36:55.468Z,56.15
2018-06-25T12:39:25.675Z,58.58
2018-06-25T12:41:56.402Z,56.19
2018-06-25T12:44:26.795Z,55.13
2018-06-25T12:46:57.192Z,58.57
2018-06-25T12:49:27.512Z,55.66
2018-06-25T12:51:57.761Z,54.60
2018-06-25T12:54:27.735Z,56.99
2018-06-25T12:56:57.710Z,56.26
2018-06-25T12:59:27.884Z,53.76
2018-06-25T13:01:58.206Z,57.41
2018-06-25T13:04:28.121Z,53.50
2018-06-25T13:06:58.137Z,54.69
2018-06-25T13:09:28.161Z,48.76
2018-06-25T13:11:58.158Z,44.71
2018-06-25T13:14:28.369Z,45.84
2018-06-25T13:16:58.408Z,43.86
2018-06-25T13:19:28.433Z,43.10
2018-06-25T13:21:59.065Z,43.04
2018-06-25T13:24:29.535Z,42.46
2018-06-25T13:27:00.231Z,40.08
2018-06-25T13:29:30.356Z,41.69
2018-06-25T13:32:00.306Z,41.32
2018-06-25T13:34:30.241Z,39.65
2018-06-25T13:37:00.193Z,39.13
2018-06-25T13:39:30.701Z,41.31
2018-06-25T13:42:01.565Z,39.04
2018-06-25T13:44:31.937Z,41.88
2018-06-25T13:47:02.789Z,41.23
2018-06-25T13:49:33.101Z,39.12
2018-06-25T13:52:03.580Z,37.25
2018-06-25T13:54:33.836Z,39.24
2018-06-25T13:57:04.105Z,40.24
2018-06-25T13:59:34.354Z,38.61
2018-06-25T14:02:04.294Z,37.10
2018-06-25T14:04:34.345Z,37.38
2018-06-25T14:07:04.519Z,41.76
2018-06-25T14:09:34.735Z,40.43
2018-06-25T14:12:05.004Z,39.51
2018-06-25T14:14:34.882Z,40.86
2018-06-25T14:17:04.872Z,43.04
2018-06-25T14:19:34.762Z,42.57
2018-06-25T14:22:04.788Z,38.59
2018-06-25T14:24:39.975Z,36.51
2018-06-25T14:27:11.839Z,36.07
2018-06-25T14:29:42.135Z,35.03
2018-06-25T14:32:48.123Z,35.49
2018-06-25T14:35:18.176Z,35.53
2018-06-25T14:37:48.241Z,35.90
2018-06-25T14:40:18.667Z,38.65
2018-06-25T14:42:48.740Z,35.63
2018-06-25T14:45:18.733Z,33.74
2018-06-25T14:47:48.603Z,35.25
2018-06-25T14:50:19.253Z,35.10
2018-06-25T14:52:49.252Z,35.12
2018-06-25T14:55:19.292Z,35.77
2018-06-25T14:57:49.193Z,37.90
2018-06-25T15:00:21.501Z,38.24
2018-06-25T15:02:52.093Z,38.68
2018-06-25T15:05:22.308Z,37.08
2018-06-25T15:07:52.183Z,36.17
2018-06-25T15:10:22.669Z,37.18
2018-06-25T15:12:53.127Z,37.16
2018-06-25T15:15:23.579Z,37.19
2018-06-25T15:17:54.086Z,38.10
2018-06-25T15:20:24.380Z,37.77
2018-06-25T15:22:54.370Z,36.08
2018-06-25T15:25:24.794Z,36.23
2018-06-25T15:27:55.281Z,36.21
2018-06-25T15:30:25.061Z,35.95
2018-06-25T15:32:55.068Z,37.82
2018-06-25T15:35:24.942Z,36.81
2018-06-25T15:37:55.048Z,36.91
2018-06-25T15:40:24.920Z,38.08
2018-06-25T15:42:55.477Z,36.87
2018-06-25T15:45:25.738Z,36.29
2018-06-25T15:47:55.911Z,36.04
2018-06-25T15:50:26.313Z,38.27
2018-06-25T15:52:57.484Z,38.11
2018-06-25T15:55:27.761Z,37.04
2018-06-25T15:57:57.988Z,38.80
2018-06-25T16:00:27.961Z,38.99
2018-06-25T16:02:57.879Z,36.91
2018-06-25T16:05:27.963Z,37.01
2018-06-25T16:07:57.937Z,37.04
2018-06-25T16:10:27.861Z,37.70
2018-06-25T16:12:57.787Z,39.91
2018-06-25T16:15:27.883Z,39.05
2018-06-25T16:17:57.853Z,40.97
2018-06-25T16:20:28.687Z,37.66
2018-06-25T16:22:58.805Z,36.52
2018-06-25T16:25:29.117Z,36.38
2018-06-25T16:27:59.311Z,40.17
2018-06-25T16:30:29.303Z,40.89
2018-06-25T16:32:59.259Z,40.50
2018-06-25T16:35:29.191Z,39.83
2018-06-25T16:37:59.061Z,38.25
2018-06-25T16:40:29.130Z,40.71
2018-06-25T16:42:59.164Z,42.46
2018-06-25T16:45:29.169Z,42.62
2018-06-25T16:47:59.220Z,42.71
2018-06-25T16:50:29.210Z,45.39
2018-06-25T16:52:59.250Z,43.12
2018-06-25T16:55:29.188Z,43.22
2018-06-25T16:57:59.647Z,48.23
2018-06-25T17:00:29.624Z,48.12
2018-06-25T17:02:59.558Z,48.70
2018-06-25T17:05:29.529Z,53.52
2018-06-25T17:07:59.557Z,54.49
2018-06-25T17:10:29.539Z,56.01
2018-06-25T17:12:59.504Z,58.63
2018-06-25T17:15:29.576Z,61.07
2018-06-25T17:17:59.618Z,62.16
2018-06-25T17:20:29.583Z,62.33
2018-06-25T17:22:59.654Z,62.57
2018-06-25T17:25:29.547Z,61.82
2018-06-25T17:27:59.513Z,60.13
2018-06-25T17:30:29.505Z,59.47
2018-06-25T17:32:59.340Z,60.11
2018-06-25T17:35:29.385Z,60.00
2018-06-25T17:37:59.329Z,61.34
2018-06-25T17:40:29.278Z,61.24
2018-06-25T17:42:59.345Z,62.48
2018-06-25T17:45:29.359Z,65.02
2018-06-25T17:47:59.232Z,64.65
2018-06-25T17:50:29.182Z,67.77
2018-06-25T17:52:59.172Z,66.02
2018-06-25T17:55:29.248Z,67.55
2018-06-25T17:57:59.196Z,68.21
2018-06-25T18:00:29.249Z,69.23
2018-06-25T18:02:59.372Z,70.41
2018-06-25T18:05:29.320Z,70.44
2018-06-25T18:07:59.234Z,70.34
2018-06-25T18:10:29.236Z,69.90
2018-06-25T18:12:59.210Z,69.14
2018-06-25T18:15:29.219Z,68.87
2018-06-25T18:17:59.181Z,68.77
2018-06-25T18:20:29.177Z,67.54
2018-06-25T18:22:59.610Z,68.51
2018-06-25T18:25:29.516Z,68.57
2018-06-25T18:27:59.456Z,67.74
2018-06-25T18:30:29.565Z,68.04
2018-06-25T18:32:59.481Z,69.24
2018-06-25T18:35:29.412Z,67.31
2018-06-25T18:37:59.385Z,68.04
2018-06-25T18:40:29.670Z,64.09
2018-06-25T18:42:59.744Z,63.13
2018-06-25T18:45:29.862Z,61.81
2018-06-25T18:47:59.809Z,62.42
2018-06-25T18:50:29.844Z,62.33
2018-06-25T18:52:59.847Z,63.14
2018-06-25T18:55:29.820Z,64.23
2018-06-25T18:57:59.759Z,65.96
2018-06-25T19:00:29.755Z,67.26
2018-06-25T19:02:59.754Z,68.39
2018-06-25T19:05:29.703Z,68.43
2018-06-25T19:07:59.625Z,69.01
2018-06-25T19:10:30.724Z,70.19
2018-06-25T19:13:00.777Z,70.38
2018-06-25T19:15:30.711Z,71.88
2018-06-25T19:18:00.751Z,70.25
2018-06-25T19:20:30.727Z,71.82
2018-06-25T19:23:01.537Z,71.14
2018-06-25T19:25:31.589Z,71.44
2018-06-25T19:28:01.701Z,70.62
2018-06-25T19:30:31.897Z,70.46
2018-06-25T19:33:01.754Z,70.96
2018-06-25T19:35:31.887Z,71.22
2018-06-25T19:38:01.812Z,71.40
2018-06-25T19:40:31.991Z,70.76
2018-06-25T19:43:02.050Z,69.09
2018-06-25T19:45:32.437Z,69.52
2018-06-25T19:48:02.367Z,70.01
2018-06-25T19:50:32.348Z,70.36
2018-06-25T19:53:02.244Z,69.05
2018-06-25T19:55:33.152Z,69.83
2018-06-25T19:58:03.599Z,69.43
2018-06-25T20:00:33.873Z,70.74
2018-06-25T20:03:04.000Z,70.35
2018-06-25T20:05:34.148Z,70.83
2018-06-25T20:08:04.351Z,69.19
2018-06-25T20:10:34.627Z,70.84
2018-06-25T20:13:04.624Z,71.03
2018-06-25T20:15:34.602Z,71.82
2018-06-25T20:18:04.515Z,72.58
2018-06-25T20:20:34.503Z,72.20
2018-06-25T20:23:04.928Z,73.24
2018-06-25T20:25:34.809Z,73.55
2018-06-25T20:28:04.769Z,73.76
2018-06-25T20:30:35.017Z,73.17
2018-06-25T20:33:05.112Z,72.40
2018-06-25T20:35:35.072Z,73.08
2018-06-25T20:38:06.135Z,73.25
2018-06-25T20:40:36.000Z,74.19
2018-06-25T20:43:05.969Z,74.14
2018-06-25T20:45:35.920Z,73.89
2018-06-25T20:48:06.153Z,73.70
2018-06-25T20:50:36.135Z,74.07
2018-06-25T20:53:05.999Z,76.34
2018-06-25T20:55:35.864Z,75.69
2018-06-25T20:58:06.051Z,75.96
2018-06-25T21:00:35.937Z,76.34
2018-06-25T21:03:06.266Z,76.78
2018-06-25T21:05:36.604Z,76.62
2018-06-25T21:08:06.732Z,77.80
2018-06-25T21:10:36.580Z,78.11
2018-06-25T21:13:06.501Z,77.23
2018-06-25T21:15:36.399Z,77.77
2018-06-25T21:18:06.353Z,78.75
2018-06-25T21:20:36.974Z,78.68
2018-06-25T21:23:08.366Z,79.12
2018-06-25T21:25:38.576Z,79.84
2018-06-25T21:28:08.471Z,79.80
2018-06-25T21:30:38.727Z,81.33
2018-06-25T21:33:09.070Z,81.09
2018-06-25T21:35:39.092Z,80.42
2018-06-25T21:38:09.099Z,81.27
2018-06-25T21:40:39.012Z,81.84
2018-06-25T21:43:09.267Z,80.76
2018-06-25T21:45:39.822Z,81.20
2018-06-25T21:48:10.057Z,82.07
2018-06-25T21:50:40.028Z,82.79
2018-06-25T21:53:10.305Z,81.32
2018-06-25T21:55:40.567Z,81.79
2018-06-25T21:58:10.644Z,82.75
2018-06-25T22:00:47.811Z,82.47
2018-06-25T22:03:18.151Z,81.70
2018-06-25T22:05:48.741Z,83.31
2018-06-25T22:08:19.197Z,82.80
2018-06-25T22:10:49.171Z,83.10
2018-06-25T22:13:19.532Z,82.50
2018-06-25T22:15:49.464Z,82.49
2018-06-25T22:18:19.470Z,82.60
2018-06-25T22:20:49.405Z,82.00
2018-06-25T22:23:19.381Z,83.25
2018-06-25T22:25:49.755Z,82.91
2018-06-25T22:28:20.005Z,83.42
2018-06-25T22:30:50.037Z,84.15
2018-06-25T22:33:19.968Z,83.06
2018-06-25T22:35:49.908Z,84.03
2018-06-25T22:38:20.050Z,82.70
2018-06-25T22:40:49.948Z,83.56
2018-06-25T22:43:19.912Z,83.88
2018-06-25T22:45:50.037Z,82.98
2018-06-25T22:48:20.180Z,82.41
2018-06-25T22:50:50.067Z,83.31
2018-06-25T22:53:20.221Z,83.42
2018-06-25T22:55:50.178Z,82.96
2018-06-25T22:58:20.482Z,81.76
2018-06-25T23:00:50.737Z,82.48
2018-06-25T23:03:20.726Z,81.67
2018-06-25T23:05:50.943Z,81.93
2018-06-25T23:08:21.108Z,81.58
2018-06-25T23:10:51.071Z,82.42
2018-06-25T23:13:21.395Z,82.94
2018-06-25T23:15:51.572Z,83.72
2018-06-25T23:18:21.804Z,82.20
2018-06-25T23:20:52.112Z,82.94
2018-06-25T23:23:22.540Z,84.51
2018-06-25T23:25:52.468Z,85.30
2018-06-25T23:28:22.606Z,86.17
2018-06-25T23:30:52.608Z,84.91
2018-06-25T23:33:22.622Z,84.37
2018-06-25T23:35:52.601Z,83.62
2018-06-25T23:38:22.620Z,83.24
2018-06-25T23:40:52.584Z,84.67
2018-06-25T23:43:22.665Z,84.96
2018-06-25T23:45:53.545Z,84.86
2018-06-25T23:48:23.391Z,85.07
2018-06-25T23:50:54.565Z,84.95
2018-06-25T23:53:24.712Z,83.42
2018-06-25T23:55:54.885Z,84.33
2018-06-25T23:58:25.233Z,85.67
